Destinations Rabat-Salé Airport

Rabat-Salé Airport (GMME / RBA)

Flights to Rabat-Salé Airport

Flight number From ETE Dispatch
SPY-612 EHGG Groningen Airport Eelde 03:50

Flights from Rabat-Salé Airport

Flight number To ETE Dispatch
SPY-613 EHGG Groningen Airport Eelde
About

Rabat-Salé Airport facts

Rabat-Salé Airport is located in Rabat at an elevation of 84.1 meters or 276 feet.

Currently, Speedy Airlines serves 2 flights to and from Rabat-Salé Airport.

Detailed airport info

Route map

Weather

Current weather

METAR

METAR

Metar data retrieved Sunday, 21 July 2024 at 19:25 UTC

GMME 211900Z 35006KT 310V020 5000 SCT016 23/20 Q1014 NOSIG
Wind Temperature
6 kt 23c